KFLG/FLG METAR and TAF weather

Enter ICAO airport designator
Station Type Date Time Source
KFLG METAR 2024/06/14 21:57 UTC NOAA

KFLG 142157Z 23011G15KT 10SM FEW110 28/01 A3021 RMK AO2 SLP121 T02780006


Station Type Date Time Source
KFLG Decoded METAR 2024/06/14 21:57 UTC NOAA

FLAGSTAFF PULLIAM AIRPORT, AZ, United States (KFLG) 35-08N 111-40W 2134M
Jun 14, 2024 - 05:57 PM EDT / 2024.06.14 2157 UTC
Wind: from the SW (230 degrees) at 13 MPH (11 KT) gusting to 17 MPH (15 KT):0
Visibility: 10 mile(s):0
Sky conditions: mostly clear
Temperature: 82.0 F (27.8 C)
Dew Point: 33.1 F (0.6 C)
Relative Humidity: 17%
Pressure (altimeter): 30.21 in. Hg (1023 hPa)
ob: KFLG 142157Z 23011G15KT 10SM FEW110 28/01 A3021 RMK AO2 SLP121 T02780006
cycle: 22

Station Type Date Time Source
KFLG TAF 2024/06/14 22:27 UTC NOAA